Pagrindinis puslapis
METAR-TAF:

METAR-TAF

Oro uostai :

Abha, Saudo Arabija

platuma: 18-14N, ilguma: 042-39E, Aukštis: 2090 m

Dabartinis oras

Ataskaita buvo paskelbta 37 minutes, ne 16:00 UTC
Vėjas 10 kt iš Pietų
Temperatūra 12°C
Drėgmė 82%
Slėgis 1022 hPa
Matomumas 10 km arba daugiau
Mažai debesys ne aukštis 1500 ft

METAR: OEAB 221600Z 18010KT 9999 FEW015 12/09 Q1022 NOSIG

Laikas: 19:37 (16:37 UTC)

Prognozė

Ataskaita buvo paskelbta 5 valandos ir 37 minutes, ne 11:00 UTC
Prognozė galioja nuo 22 metu 12 UTC su 23 metu 18 UTC
Vėjas 14 kt iš Pietvakarių
Matomumas: 8000 m
Išsisklaidę debesys ne aukštis 2000 ft
Laikinai
nuo 22 metu 12 UTC su 22 metu 16 UTC
Mažai debesys ne aukštis 2500 ft, Liūtiniai kamuoliniai debesys.
Tapsmas
nuo 22 metu 18 UTC su 22 metu 20 UTC
Vėjas 3 kt nuo kintamojo kryptimis
Laikinai
nuo 23 metu 00 UTC su 23 metu 04 UTC
Matomumas: 3000 m
Mažai debesys ne aukštis 1500 ft
rūkana

TAF: OEAB 221100Z 2212/2318 23014KT 8000 SCT020 TEMPO 2212/2216 FEW025CB BECMG 2218/2220 VRB03KT TEMPO 2300/2304 3000 BR FEW015

Orai ataskaitas ir orų prognozės (METAR, TAF).

turimą stotys yra geltonos ir raudonos taškus žemėlapyje.

Perkelti pele per norėdami pamatyti stoties vardą.

Tada spustelėkite, norėdami matyti oro stebėjimo ir prognozės.

Norėdami pakeisti žemėlapį: spustelėkite ant žalios mygtukų su juodo kryžiaus žemyn,; žalią mygtuką su brūkšneliu, jei norite nutolinti; arba žalių rodyklių gretimoms žemėlapius.


METAR-TAF: